createdAt,value
2023-03-25T00:00:16.949Z,97284.41
2023-03-25T00:02:49.531Z,97284.94
2023-03-25T00:05:19.096Z,97296.59
2023-03-25T00:07:48.384Z,97296.13
2023-03-25T00:10:15.630Z,97300.31
2023-03-25T00:12:45.542Z,97289.44
2023-03-25T00:15:13.171Z,97291.72
2023-03-25T00:22:01.840Z,97304.44
2023-03-25T00:24:28.895Z,97301.34
2023-03-25T00:26:55.747Z,97307.81
2023-03-25T00:29:22.614Z,97326.41
2023-03-25T00:31:49.521Z,97318.25
2023-03-25T00:34:16.405Z,97320.47
2023-03-25T00:36:43.926Z,97314.53
2023-03-25T00:42:44.799Z,97302.00
2023-03-25T00:45:12.772Z,97293.97
2023-03-25T00:47:39.690Z,97320.09
2023-03-25T00:50:07.019Z,97316.84
2023-03-25T00:52:33.924Z,97318.25
2023-03-25T00:55:02.181Z,97309.53
2023-03-25T00:57:29.175Z,97324.09
2023-03-25T00:59:56.092Z,97323.44
2023-03-25T01:02:24.139Z,97332.78
2023-03-25T01:04:51.246Z,97338.78
2023-03-25T01:07:20.501Z,97346.75
2023-03-25T01:09:47.902Z,97358.59
2023-03-25T01:12:15.692Z,97343.66
2023-03-25T01:14:43.340Z,97354.00
2023-03-25T01:17:10.470Z,97340.34
2023-03-25T01:23:18.148Z,97340.56
2023-03-25T01:25:45.040Z,97344.56
2023-03-25T01:31:59.463Z,97335.06
2023-03-25T01:34:26.423Z,97337.22
2023-03-25T01:36:55.736Z,97337.03
2023-03-25T01:42:51.815Z,97329.69
2023-03-25T01:45:30.917Z,97333.69
2023-03-25T01:52:03.376Z,97342.44
2023-03-25T01:54:30.978Z,97338.06
2023-03-25T01:56:58.290Z,97343.91
2023-03-25T01:59:27.317Z,97336.31
2023-03-25T02:01:55.889Z,97334.56
2023-03-25T02:04:59.212Z,97339.72
2023-03-25T02:11:55.036Z,97319.59
2023-03-25T02:14:25.300Z,97325.56
2023-03-25T02:17:10.827Z,97328.09
2023-03-25T02:20:09.413Z,97321.19
2023-03-25T02:22:50.280Z,97319.19
2023-03-25T02:25:35.714Z,97308.31
2023-03-25T02:28:05.440Z,97301.56
2023-03-25T02:31:10.722Z,97294.00
2023-03-25T02:33:57.699Z,97293.81
2023-03-25T02:36:30.432Z,97296.09
2023-03-25T02:39:14.183Z,97298.56
2023-03-25T02:41:48.945Z,97294.75
2023-03-25T02:44:44.166Z,97298.06
2023-03-25T02:47:16.040Z,97297.28
2023-03-25T02:49:53.602Z,97298.34
2023-03-25T02:52:21.364Z,97303.72
2023-03-25T02:54:49.457Z,97307.88
2023-03-25T02:57:19.513Z,97317.28
2023-03-25T02:59:47.703Z,97316.81
2023-03-25T03:02:16.037Z,97314.81
2023-03-25T03:04:54.306Z,97322.03
2023-03-25T03:07:33.851Z,97309.38
2023-03-25T03:10:21.159Z,97311.72
2023-03-25T03:13:25.774Z,97321.19
2023-03-25T03:16:13.450Z,97344.28
2023-03-25T03:18:58.751Z,97338.12
2023-03-25T03:21:38.306Z,97342.13
2023-03-25T03:24:22.821Z,97339.06
2023-03-25T03:27:12.208Z,97332.44
2023-03-25T03:29:45.932Z,97341.87
2023-03-25T03:32:57.914Z,97326.13
2023-03-25T03:35:38.564Z,97332.78
2023-03-25T03:42:01.908Z,97328.34
2023-03-25T03:44:34.706Z,97332.13
2023-03-25T03:47:11.072Z,97325.19
2023-03-25T03:49:44.911Z,97333.56
2023-03-25T03:52:22.529Z,97330.81
2023-03-25T03:54:56.224Z,97324.94
2023-03-25T03:57:42.439Z,97329.84
2023-03-25T04:00:16.176Z,97343.28
2023-03-25T04:03:30.496Z,97350.16
2023-03-25T04:06:22.027Z,97362.78
2023-03-25T04:12:35.691Z,97365.78
2023-03-25T04:15:03.863Z,97362.56
2023-03-25T04:17:33.211Z,97359.62
2023-03-25T04:20:01.805Z,97363.50
2023-03-25T04:22:28.654Z,97352.97
2023-03-25T04:24:56.377Z,97358.84
2023-03-25T04:27:23.313Z,97354.94
2023-03-25T04:29:52.130Z,97352.19
2023-03-25T04:32:19.184Z,97353.88
2023-03-25T04:34:47.143Z,97361.28
2023-03-25T04:37:14.454Z,97351.84
2023-03-25T04:39:41.841Z,97360.56
2023-03-25T04:42:14.015Z,97349.97
2023-03-25T04:44:40.958Z,97352.97
2023-03-25T04:47:12.081Z,97355.25
2023-03-25T04:49:38.978Z,97360.00
2023-03-25T04:52:06.609Z,97365.09
2023-03-25T04:54:33.484Z,97364.34
2023-03-25T04:57:00.596Z,97365.91
2023-03-25T04:59:27.476Z,97365.91
2023-03-25T05:01:54.443Z,97367.03
2023-03-25T05:04:21.791Z,97366.38
2023-03-25T05:06:51.439Z,97371.03
2023-03-25T05:09:22.286Z,97374.72
2023-03-25T05:11:50.150Z,97379.56
2023-03-25T05:14:19.043Z,97382.50
2023-03-25T05:16:47.239Z,97382.56
2023-03-25T05:22:43.400Z,97391.31
2023-03-25T05:25:10.702Z,97385.38
2023-03-25T05:27:38.281Z,97385.94
2023-03-25T05:30:07.246Z,97388.66
2023-03-25T05:32:34.310Z,97389.81
2023-03-25T05:35:02.340Z,97396.53
2023-03-25T05:37:29.273Z,97404.28
2023-03-25T05:39:56.572Z,97408.75
2023-03-25T05:42:23.975Z,97394.22
2023-03-25T05:44:52.546Z,97410.53
2023-03-25T05:47:24.609Z,97414.25
2023-03-25T05:49:52.932Z,97421.38
2023-03-25T05:52:20.609Z,97424.03
2023-03-25T05:54:51.928Z,97437.63
2023-03-25T05:57:19.138Z,97431.38
2023-03-25T05:59:46.036Z,97431.13
2023-03-25T06:02:15.046Z,97432.47
2023-03-25T06:04:42.938Z,97429.28
2023-03-25T06:07:14.505Z,97423.59
2023-03-25T06:09:46.341Z,97434.47
2023-03-25T06:12:17.886Z,97437.28
2023-03-25T06:14:45.953Z,97432.81
2023-03-25T06:17:14.158Z,97436.56
2023-03-25T06:19:41.374Z,97437.06
2023-03-25T06:22:12.337Z,97438.25
2023-03-25T06:24:40.443Z,97444.38
2023-03-25T06:27:12.373Z,97456.69
2023-03-25T06:33:42.183Z,97462.66
2023-03-25T06:36:11.614Z,97465.13
2023-03-25T06:38:39.808Z,97461.25
2023-03-25T06:41:07.448Z,97454.19
2023-03-25T06:43:34.953Z,97452.41
2023-03-25T06:46:01.849Z,97459.66
2023-03-25T06:51:51.707Z,97453.56
2023-03-25T06:54:18.830Z,97462.84
2023-03-25T06:56:45.740Z,97468.50
2023-03-25T06:59:12.637Z,97465.19
2023-03-25T07:01:39.912Z,97466.38
2023-03-25T07:04:06.868Z,97471.37
2023-03-25T07:06:33.822Z,97480.38
2023-03-25T07:09:00.729Z,97479.78
2023-03-25T07:11:29.872Z,97482.09
2023-03-25T07:13:57.030Z,97486.56
2023-03-25T07:16:24.150Z,97493.16
2023-03-25T07:22:31.642Z,97490.28
2023-03-25T07:24:58.844Z,97485.16
2023-03-25T07:27:26.598Z,97488.13
2023-03-25T07:29:53.417Z,97487.13
2023-03-25T07:32:20.415Z,97489.84
2023-03-25T07:34:47.368Z,97488.34
2023-03-25T07:37:14.273Z,97484.91
2023-03-25T07:43:22.232Z,97487.81
2023-03-25T07:45:49.192Z,97481.41
2023-03-25T07:48:16.830Z,97482.59
2023-03-25T07:50:44.262Z,97487.44
2023-03-25T07:53:11.330Z,97487.56
2023-03-25T07:55:38.374Z,97483.34
2023-03-25T07:58:05.402Z,97480.81
2023-03-25T08:00:32.257Z,97475.78
2023-03-25T08:02:59.237Z,97473.62
2023-03-25T08:05:26.195Z,97469.28
2023-03-25T08:11:59.339Z,97468.69
2023-03-25T08:14:26.216Z,97464.56
2023-03-25T08:16:53.324Z,97470.13
2023-03-25T08:19:20.481Z,97467.41
2023-03-25T08:21:47.387Z,97474.91
2023-03-25T08:24:14.257Z,97481.91
2023-03-25T08:26:41.173Z,97475.97
2023-03-25T08:32:54.708Z,97472.06
2023-03-25T08:35:23.977Z,97481.59
2023-03-25T08:37:51.427Z,97483.47
2023-03-25T08:40:18.775Z,97478.63
2023-03-25T08:42:46.863Z,97486.25
2023-03-25T08:45:15.500Z,97489.72
2023-03-25T08:47:43.684Z,97486.37
2023-03-25T08:50:10.896Z,97490.41
2023-03-25T08:52:37.931Z,97485.03
2023-03-25T08:55:09.212Z,97484.34
2023-03-25T09:03:46.884Z,97480.41
2023-03-25T09:06:13.830Z,97487.66
2023-03-25T09:08:41.003Z,97484.13
2023-03-25T09:11:08.171Z,97478.94
2023-03-25T09:13:35.043Z,97478.66
2023-03-25T09:16:01.952Z,97476.66
2023-03-25T09:22:09.611Z,97489.56
2023-03-25T09:24:36.502Z,97495.63
2023-03-25T09:27:03.755Z,97490.72
2023-03-25T09:29:30.936Z,97488.00
2023-03-25T09:31:58.557Z,97497.56
2023-03-25T09:34:26.040Z,97490.91
2023-03-25T09:36:54.400Z,97482.75
2023-03-25T09:42:59.046Z,97477.84
2023-03-25T09:45:37.284Z,97470.19
2023-03-25T09:51:57.811Z,97464.72
2023-03-25T09:54:32.492Z,97469.41
2023-03-25T09:57:06.542Z,97481.97
2023-03-25T10:03:21.255Z,97482.53
2023-03-25T10:06:00.138Z,97498.94
2023-03-25T10:12:31.017Z,97493.06
2023-03-25T10:15:19.214Z,97494.41
2023-03-25T10:22:05.538Z,97501.37
2023-03-25T10:24:40.346Z,97507.09
2023-03-25T10:27:33.673Z,97506.41
2023-03-25T10:30:28.112Z,97508.25
2023-03-25T10:32:59.875Z,97506.72
2023-03-25T10:35:31.943Z,97507.75
2023-03-25T10:38:06.580Z,97514.88
2023-03-25T10:40:50.447Z,97506.44
2023-03-25T10:43:35.451Z,97517.06
2023-03-25T10:46:13.193Z,97513.84
2023-03-25T10:52:21.106Z,97524.09
2023-03-25T10:54:52.306Z,97525.34
2023-03-25T10:57:22.630Z,97522.69
2023-03-25T11:00:01.506Z,97508.84
2023-03-25T11:02:30.643Z,97508.50
2023-03-25T11:05:00.843Z,97507.75
2023-03-25T11:07:33.995Z,97499.75
2023-03-25T11:10:17.650Z,97496.97
2023-03-25T11:12:48.486Z,97485.63
2023-03-25T11:15:24.701Z,97478.03
2023-03-25T11:22:17.283Z,97496.50
2023-03-25T11:24:47.872Z,97489.00
2023-03-25T11:27:23.208Z,97484.03
2023-03-25T11:29:55.883Z,97475.66
2023-03-25T11:32:39.526Z,97459.88
2023-03-25T11:35:15.422Z,97458.66
2023-03-25T11:42:00.599Z,97461.41
2023-03-25T11:44:32.163Z,97457.03
2023-03-25T11:47:03.356Z,97460.53
2023-03-25T11:49:35.428Z,97463.87
2023-03-25T11:52:14.795Z,97466.94
2023-03-25T11:54:42.517Z,97492.78
2023-03-25T11:57:24.589Z,97473.19
2023-03-25T12:00:01.968Z,97484.69
2023-03-25T12:02:37.571Z,97471.59
2023-03-25T12:05:15.031Z,97449.19
2023-03-25T12:12:01.581Z,97444.09
2023-03-25T12:14:49.975Z,97437.81
2023-03-25T12:17:16.885Z,97417.03
2023-03-25T12:23:40.799Z,97418.88
2023-03-25T12:26:14.136Z,97419.84
2023-03-25T12:32:24.434Z,97427.22
2023-03-25T12:34:57.111Z,97414.72
2023-03-25T12:37:39.581Z,97411.75
2023-03-25T12:40:34.419Z,97409.87
2023-03-25T12:43:12.000Z,97401.87
2023-03-25T12:45:44.527Z,97413.41
2023-03-25T12:52:08.270Z,97407.06
2023-03-25T12:54:54.412Z,97415.38
2023-03-25T12:57:27.353Z,97411.09
2023-03-25T13:00:09.416Z,97408.19
2023-03-25T13:03:27.526Z,97406.53
2023-03-25T13:06:22.315Z,97406.47
2023-03-25T13:12:42.333Z,97413.75
2023-03-25T13:15:26.755Z,97410.13
2023-03-25T13:18:01.973Z,97408.03
2023-03-25T13:20:31.635Z,97410.69
2023-03-25T13:23:02.365Z,97405.91
2023-03-25T13:25:39.820Z,97412.47
2023-03-25T13:28:11.982Z,97409.66
2023-03-25T13:30:41.823Z,97420.00
2023-03-25T13:33:16.819Z,97416.56
2023-03-25T13:35:52.651Z,97420.72
2023-03-25T13:42:08.115Z,97417.09
2023-03-25T13:44:38.262Z,97412.25
2023-03-25T13:47:30.888Z,97417.59
2023-03-25T13:50:03.103Z,97415.78
2023-03-25T13:52:40.192Z,97413.41
2023-03-25T13:55:17.143Z,97411.44
2023-03-25T14:04:27.558Z,97410.75
2023-03-25T14:07:21.349Z,97405.16
2023-03-25T14:10:12.677Z,97401.13
2023-03-25T14:12:44.156Z,97402.03
2023-03-25T14:15:23.266Z,97396.63
2023-03-25T14:17:52.913Z,97397.62
2023-03-25T14:20:25.474Z,97400.19
2023-03-25T14:23:02.069Z,97401.50
2023-03-25T14:25:40.813Z,97401.81
2023-03-25T14:28:09.692Z,97403.22
2023-03-25T14:30:37.109Z,97392.28
2023-03-25T14:33:04.236Z,97392.47
2023-03-25T14:35:34.217Z,97391.59
2023-03-25T14:38:22.024Z,97389.94
2023-03-25T14:41:02.677Z,97397.41
2023-03-25T14:43:38.325Z,97396.59
2023-03-25T14:46:11.545Z,97391.06
2023-03-25T14:52:15.946Z,97391.97
2023-03-25T14:54:43.905Z,97378.00
2023-03-25T14:57:16.118Z,97395.06
2023-03-25T14:59:59.631Z,97415.53
2023-03-25T15:02:31.978Z,97400.75
2023-03-25T15:05:02.432Z,97403.44
2023-03-25T15:11:50.912Z,97401.91
2023-03-25T15:14:22.812Z,97399.91
2023-03-25T15:16:49.992Z,97384.41
2023-03-25T15:19:20.391Z,97396.34
2023-03-25T15:22:01.165Z,97393.78
2023-03-25T15:24:38.038Z,97388.53
2023-03-25T15:27:08.942Z,97376.22
2023-03-25T15:33:49.662Z,97380.88
2023-03-25T15:36:33.332Z,97384.66
2023-03-25T15:39:22.345Z,97379.41
2023-03-25T15:42:18.014Z,97377.41
2023-03-25T15:44:53.388Z,97371.84
2023-03-25T15:47:39.765Z,97373.94
2023-03-25T15:50:34.535Z,97376.94
2023-03-25T15:53:13.713Z,97377.88
2023-03-25T15:55:44.381Z,97380.50
2023-03-25T16:02:00.910Z,97385.06
2023-03-25T16:04:48.314Z,97375.22
2023-03-25T16:07:18.032Z,97376.75
2023-03-25T16:09:47.257Z,97368.09
2023-03-25T16:12:20.691Z,97370.84
2023-03-25T16:14:48.380Z,97367.41
2023-03-25T16:17:18.015Z,97367.62
2023-03-25T16:23:21.720Z,97382.84
2023-03-25T16:25:50.282Z,97385.63
2023-03-25T16:28:22.303Z,97378.72
2023-03-25T16:30:53.422Z,97388.59
2023-03-25T16:33:26.995Z,97378.16
2023-03-25T16:35:59.693Z,97376.59
2023-03-25T16:38:26.816Z,97378.84
2023-03-25T16:41:01.596Z,97382.75
2023-03-25T16:43:29.894Z,97379.78
2023-03-25T16:46:02.689Z,97376.22
2023-03-25T16:48:36.761Z,97380.84
2023-03-25T16:51:32.262Z,97375.78
2023-03-25T16:54:01.885Z,97379.06
2023-03-25T16:56:32.026Z,97382.06
2023-03-25T16:59:11.962Z,97379.31
2023-03-25T17:01:42.839Z,97391.00
2023-03-25T17:04:17.257Z,97384.38
2023-03-25T17:06:46.621Z,97383.06
2023-03-25T17:09:19.244Z,97394.78
2023-03-25T17:11:47.120Z,97398.94
2023-03-25T17:14:19.588Z,97393.28
2023-03-25T17:16:48.532Z,97387.22
2023-03-25T17:19:16.135Z,97383.62
2023-03-25T17:22:02.314Z,97390.56
2023-03-25T17:24:37.944Z,97384.28
2023-03-25T17:27:13.784Z,97394.81
2023-03-25T17:33:35.914Z,97393.53
2023-03-25T17:36:04.062Z,97408.28
2023-03-25T17:38:47.888Z,97420.84
2023-03-25T17:41:16.241Z,97425.63
2023-03-25T17:43:48.600Z,97428.94
2023-03-25T17:46:21.969Z,97431.72
2023-03-25T17:53:16.858Z,97445.88
2023-03-25T17:55:43.959Z,97455.56
2023-03-25T17:58:10.914Z,97456.72
2023-03-25T18:00:38.264Z,97448.31
2023-03-25T18:03:13.299Z,97455.78
2023-03-25T18:05:40.456Z,97462.22
2023-03-25T18:08:07.415Z,97462.50
2023-03-25T18:10:35.526Z,97464.50
2023-03-25T18:13:02.427Z,97458.50
2023-03-25T18:15:30.236Z,97461.16
2023-03-25T18:22:13.877Z,97481.75
2023-03-25T18:24:46.465Z,97481.69
2023-03-25T18:27:14.434Z,97487.78
2023-03-25T18:29:41.597Z,97493.53
2023-03-25T18:32:08.638Z,97501.13
2023-03-25T18:34:35.952Z,97518.97
2023-03-25T18:37:02.924Z,97533.06
2023-03-25T18:43:10.450Z,97536.44
2023-03-25T18:45:37.686Z,97538.87
2023-03-25T18:48:04.994Z,97527.59
2023-03-25T18:50:37.745Z,97532.84
2023-03-25T18:53:06.085Z,97524.37
2023-03-25T18:55:34.872Z,97527.41
2023-03-25T18:58:01.750Z,97527.34
2023-03-25T19:00:37.217Z,97542.94
2023-03-25T19:03:04.411Z,97550.00
2023-03-25T19:05:31.925Z,97528.09
2023-03-25T19:11:54.044Z,97541.34
2023-03-25T19:14:21.196Z,97546.31
2023-03-25T19:17:01.048Z,97544.69
2023-03-25T19:19:30.510Z,97551.03
2023-03-25T19:21:57.372Z,97552.25
2023-03-25T19:24:24.245Z,97549.31
2023-03-25T19:26:51.640Z,97559.16
2023-03-25T19:29:18.545Z,97559.31
2023-03-25T19:31:45.451Z,97561.53
2023-03-25T19:34:12.319Z,97559.38
2023-03-25T19:36:39.228Z,97565.06
2023-03-25T19:39:06.184Z,97564.63
2023-03-25T19:41:34.970Z,97563.38
2023-03-25T19:44:01.989Z,97574.56
2023-03-25T19:46:30.551Z,97577.47
2023-03-25T19:52:38.402Z,97616.25
2023-03-25T19:55:06.161Z,97630.72
2023-03-25T19:57:33.272Z,97626.28
2023-03-25T20:00:01.607Z,97647.47
2023-03-25T20:02:28.667Z,97649.41
2023-03-25T20:04:55.569Z,97655.16
2023-03-25T20:07:22.530Z,97659.78
2023-03-25T20:09:49.449Z,97678.22
2023-03-25T20:12:16.365Z,97696.12
2023-03-25T20:14:43.248Z,97696.00
2023-03-25T20:17:10.131Z,97688.53
2023-03-25T20:19:37.552Z,97704.13
2023-03-25T20:22:12.227Z,97705.13
2023-03-25T20:24:49.113Z,97714.59
2023-03-25T20:27:16.078Z,97712.19
2023-03-25T20:33:24.363Z,97704.44
2023-03-25T20:35:51.456Z,97689.78
2023-03-25T20:41:55.173Z,97696.00
2023-03-25T20:44:22.407Z,97641.94
2023-03-25T20:46:49.949Z,97624.66
2023-03-25T20:52:57.495Z,97611.25
2023-03-25T20:55:24.393Z,97624.25
2023-03-25T20:57:52.045Z,97618.56
2023-03-25T21:00:19.696Z,97624.22
2023-03-25T21:02:47.938Z,97634.78
2023-03-25T21:05:14.935Z,97633.22
2023-03-25T21:07:41.822Z,97632.78
2023-03-25T21:10:09.228Z,97634.78
2023-03-25T21:12:43.825Z,97626.69
2023-03-25T21:15:12.266Z,97604.22
2023-03-25T21:17:39.157Z,97621.28
2023-03-25T21:20:07.535Z,97596.88
2023-03-25T21:22:34.863Z,97601.72
2023-03-25T21:25:01.909Z,97599.28
2023-03-25T21:27:39.615Z,97601.88
2023-03-25T21:30:09.766Z,97606.66
2023-03-25T21:32:39.783Z,97602.50
2023-03-25T21:35:08.089Z,97616.47
2023-03-25T21:37:38.082Z,97607.53
2023-03-25T21:40:08.456Z,97609.97
2023-03-25T21:42:38.544Z,97600.75
2023-03-25T21:45:07.893Z,97597.28
2023-03-25T21:51:57.246Z,97590.47
2023-03-25T21:54:24.863Z,97598.13
2023-03-25T21:56:54.910Z,97588.03
2023-03-25T21:59:22.939Z,97594.56
2023-03-25T22:01:52.847Z,97610.34
2023-03-25T22:04:19.912Z,97609.41
2023-03-25T22:06:46.908Z,97610.47
2023-03-25T22:12:54.586Z,97622.72
2023-03-25T22:15:21.320Z,97625.81
2023-03-25T22:21:53.808Z,97624.69
2023-03-25T22:24:20.649Z,97632.34
2023-03-25T22:26:47.353Z,97621.28
2023-03-25T22:29:14.256Z,97626.81
2023-03-25T22:31:42.200Z,97629.72
2023-03-25T22:34:12.379Z,97619.97
2023-03-25T22:36:42.669Z,97639.09
2023-03-25T22:39:10.630Z,97621.84
2023-03-25T22:41:37.582Z,97627.53
2023-03-25T22:44:04.681Z,97629.28
2023-03-25T22:46:32.391Z,97627.38
2023-03-25T22:52:40.756Z,97625.78
2023-03-25T22:55:08.564Z,97617.59
2023-03-25T23:03:43.571Z,97636.38
2023-03-25T23:06:11.031Z,97624.81
2023-03-25T23:08:39.243Z,97634.66
2023-03-25T23:11:09.247Z,97633.09
2023-03-25T23:13:36.638Z,97623.84
2023-03-25T23:16:06.743Z,97622.19
2023-03-25T23:22:51.987Z,97628.09
2023-03-25T23:25:18.831Z,97634.22
2023-03-25T23:34:02.991Z,97629.25
2023-03-25T23:36:31.156Z,97637.50
2023-03-25T23:38:59.146Z,97635.59
2023-03-25T23:41:26.616Z,97636.03
2023-03-25T23:43:54.549Z,97633.16
2023-03-25T23:46:22.392Z,97636.81
2023-03-25T23:52:29.893Z,97639.28
2023-03-25T23:54:56.856Z,97629.69
2023-03-25T23:57:23.765Z,97631.25
2023-03-25T23:59:50.821Z,97634.78
